createdAt,value
2018-06-14T10:24:29.926Z,4608.00
2018-06-14T10:31:22.661Z,15022.08
2018-06-14T10:32:23.427Z,14561.28
2018-06-14T10:33:24.198Z,20367.36
2018-06-14T10:34:24.972Z,19998.72
2018-06-14T10:35:25.743Z,20920.32
2018-06-14T10:36:26.537Z,19906.56
2018-06-14T10:37:27.306Z,19722.24
2018-06-14T10:38:28.077Z,19445.76
2018-06-14T10:39:28.848Z,18800.64
2018-06-14T10:40:29.617Z,19353.60
2018-06-14T10:41:30.420Z,19261.44
2018-06-14T10:42:31.189Z,19169.28
2018-06-14T10:43:32.001Z,19630.08
2018-06-14T10:44:31.733Z,19537.92
2018-06-14T10:45:33.501Z,18892.80
2018-06-14T10:46:34.306Z,19445.76
2018-06-14T10:47:35.070Z,20090.88
2018-06-14T10:48:35.839Z,18432.00
2018-06-14T10:49:36.614Z,16865.28
2018-06-14T10:50:37.386Z,11473.92
2018-06-14T10:51:38.179Z,7603.20
2018-06-14T10:52:38.949Z,7234.56
2018-06-14T10:53:39.726Z,6958.08
2018-06-14T10:54:40.494Z,6773.76
2018-06-14T10:55:41.272Z,6635.52
2018-06-14T10:56:42.061Z,6543.36
2018-06-14T10:57:42.832Z,6451.20
2018-06-14T10:58:43.606Z,6312.96
2018-06-14T10:59:44.378Z,6220.80
2018-06-14T11:00:45.151Z,6220.80
2018-06-14T11:01:45.950Z,6174.72
2018-06-14T11:02:46.720Z,6220.80
2018-06-14T11:03:47.496Z,6174.72
2018-06-14T11:04:47.266Z,5783.04
2018-06-14T11:05:49.037Z,6497.28
2018-06-14T11:06:49.836Z,6497.28
2018-06-14T11:07:50.608Z,6497.28
2018-06-14T11:08:51.558Z,5575.68
2018-06-14T11:09:51.256Z,5437.44
2018-06-14T11:10:53.032Z,6359.04
2018-06-14T11:11:53.822Z,6174.72
2018-06-14T11:12:54.595Z,5852.16
2018-06-14T11:13:55.499Z,5437.44
2018-06-14T11:14:55.212Z,5575.68
2018-06-14T11:15:56.981Z,5990.40
2018-06-14T11:16:57.777Z,5621.76
2018-06-14T11:17:58.548Z,6359.04
2018-06-14T11:18:59.328Z,6543.36
2018-06-14T11:20:00.089Z,6220.80
2018-06-14T11:21:00.859Z,5898.24
2018-06-14T11:22:01.657Z,5644.80
2018-06-14T11:23:02.437Z,5322.24
2018-06-14T11:24:03.204Z,4308.48
2018-06-14T11:25:03.980Z,4308.48
2018-06-14T11:26:04.745Z,4262.40
2018-06-14T11:27:05.544Z,4147.20
2018-06-14T11:28:06.314Z,4170.24
2018-06-14T11:29:07.107Z,4147.20
2018-06-14T11:30:07.877Z,4101.12
2018-06-14T11:31:08.648Z,4078.08
2018-06-14T11:32:09.454Z,4078.08
2018-06-14T11:33:10.221Z,4078.08
2018-06-14T11:34:10.992Z,4101.12
2018-06-14T11:35:11.766Z,4124.16
2018-06-14T11:36:12.542Z,4101.12
2018-06-14T11:37:12.348Z,4055.04
2018-06-14T12:29:25.528Z,6773.76
2018-06-14T12:30:26.320Z,11335.68
2018-06-14T12:31:27.090Z,11335.68
2018-06-14T12:32:27.861Z,11704.32
2018-06-14T12:33:27.633Z,10967.04
2018-06-14T12:34:29.407Z,11197.44
2018-06-14T12:47:23.200Z,9953.28
2018-06-14T12:48:23.991Z,10368.00
2018-06-14T12:49:24.760Z,10736.64
2018-06-14T12:50:25.531Z,11243.52
2018-06-14T13:08:45.202Z,10506.24
2018-06-14T13:09:45.997Z,9169.92
2018-06-14T13:10:46.769Z,10321.92
2018-06-14T13:11:47.537Z,11243.52
2018-06-14T13:12:48.316Z,11151.36
2018-06-14T13:13:49.081Z,11427.84
2018-06-14T13:14:49.876Z,11335.68
2018-06-14T13:15:50.716Z,11381.76
2018-06-14T13:16:50.422Z,11335.68
2018-06-14T13:17:52.199Z,11335.68
2018-06-14T13:18:52.969Z,11289.60
2018-06-14T13:19:53.767Z,11151.36
2018-06-14T13:20:54.540Z,11151.36
2018-06-14T13:21:55.310Z,11473.92
2018-06-14T13:22:56.080Z,11473.92
2018-06-14T13:23:56.853Z,10782.72
2018-06-14T13:24:57.651Z,11059.20
2018-06-14T13:25:58.420Z,10920.96
2018-06-14T13:26:59.192Z,10690.56
2018-06-14T13:27:59.967Z,10736.64
2018-06-14T13:29:00.740Z,11289.60
2018-06-14T13:30:01.530Z,11980.80
2018-06-14T13:31:02.305Z,12349.44
2018-06-14T13:32:03.077Z,12349.44
2018-06-14T13:33:03.851Z,12441.60
2018-06-14T13:34:04.623Z,12441.60
2018-06-14T13:35:05.417Z,12441.60
2018-06-14T13:36:06.196Z,12533.76
2018-06-14T13:37:06.967Z,12533.76
2018-06-14T13:38:07.739Z,12533.76
2018-06-14T13:39:08.514Z,12533.76
2018-06-14T13:40:09.309Z,4331.52
2018-06-14T13:41:10.080Z,4331.52
2018-06-14T13:42:10.861Z,4400.64
2018-06-14T13:43:11.637Z,4446.72
2018-06-14T13:44:12.404Z,4469.76
2018-06-14T13:45:13.200Z,4446.72
2018-06-14T13:46:13.975Z,4400.64
2018-06-14T13:47:14.751Z,4377.60
2018-06-14T13:48:15.529Z,17049.60
2018-06-14T13:49:16.352Z,16865.28
2018-06-14T13:50:16.130Z,16588.80
2018-06-14T13:51:17.863Z,16404.48
2018-06-14T13:52:18.636Z,16220.16
2018-06-14T13:53:19.406Z,16128.00
2018-06-14T13:54:20.412Z,16035.84
2018-06-14T13:55:20.219Z,15943.68
2018-06-14T13:56:20.917Z,15943.68
2018-06-14T13:57:21.695Z,15851.52
2018-06-14T13:58:22.486Z,15759.36
2018-06-14T13:59:24.255Z,15759.36
2018-06-14T14:00:25.053Z,15575.04
2018-06-14T14:01:25.906Z,15667.20
2018-06-14T14:02:25.594Z,15482.88
2018-06-14T14:03:27.407Z,15482.88
2018-06-14T14:04:27.152Z,15759.36
2018-06-14T14:05:28.948Z,16035.84
2018-06-14T14:06:29.771Z,16128.00
2018-06-14T14:07:29.492Z,16312.32
2018-06-14T14:08:31.265Z,16312.32
2018-06-14T14:09:32.040Z,16496.64
2018-06-14T14:10:32.833Z,16680.96
2018-06-14T14:11:33.605Z,16865.28
2018-06-14T14:12:34.377Z,16957.44
2018-06-14T14:13:35.147Z,17141.76
2018-06-14T14:14:35.991Z,17233.92
2018-06-14T14:15:35.717Z,17326.08
2018-06-14T14:16:37.491Z,17602.56
2018-06-14T14:17:38.260Z,17326.08
2018-06-14T14:18:39.036Z,17233.92
2018-06-14T14:19:39.806Z,17141.76
2018-06-14T14:20:40.602Z,17049.60
2018-06-14T14:21:41.374Z,16865.28
2018-06-14T14:22:42.148Z,16773.12
2018-06-14T14:23:42.920Z,16496.64
2018-06-14T14:24:43.694Z,16312.32
2018-06-14T14:25:44.489Z,16128.00
2018-06-14T14:26:45.260Z,15851.52
2018-06-14T14:27:46.039Z,15575.04
2018-06-14T14:28:46.804Z,15390.72
2018-06-14T14:29:47.577Z,15298.56
2018-06-14T14:30:48.376Z,13271.04
2018-06-14T14:31:49.147Z,13086.72
2018-06-14T14:32:49.922Z,12994.56
2018-06-14T14:33:50.700Z,13271.04
2018-06-14T14:34:51.473Z,13363.20
2018-06-14T14:35:52.270Z,13455.36
2018-06-14T14:36:53.039Z,13455.36
2018-06-14T14:37:53.811Z,13363.20
2018-06-14T14:38:54.584Z,13271.04
2018-06-14T14:39:55.353Z,13178.88
2018-06-14T14:40:56.155Z,12810.24
2018-06-14T14:41:56.924Z,12625.92
2018-06-14T14:42:57.703Z,12718.08
2018-06-14T14:43:58.470Z,12810.24
2018-06-14T14:44:59.244Z,12718.08
2018-06-14T14:46:00.040Z,12718.08
2018-06-14T14:47:00.812Z,12902.40
2018-06-14T14:48:01.588Z,12810.24
2018-06-14T14:49:02.360Z,12810.24
2018-06-14T14:50:03.131Z,12810.24
2018-06-14T14:51:03.930Z,12810.24
2018-06-14T14:52:04.702Z,12902.40
2018-06-14T14:53:05.537Z,12994.56
2018-06-14T14:54:05.245Z,858.24
2018-06-14T14:55:07.084Z,13731.84
2018-06-14T14:56:06.825Z,13824.00
2018-06-14T14:57:08.600Z,13916.16
2018-06-14T14:58:09.373Z,14008.32
2018-06-14T14:59:10.144Z,14192.64
2018-06-14T15:00:10.919Z,14284.80
2018-06-14T15:01:11.711Z,14376.96
2018-06-14T15:02:12.494Z,14469.12
2018-06-14T15:03:13.268Z,14561.28
2018-06-14T15:04:14.043Z,14745.60
2018-06-14T15:05:14.820Z,15022.08
2018-06-14T15:06:15.997Z,15482.88
2018-06-14T15:09:12.588Z,16035.84
2018-06-14T15:10:13.365Z,16128.00
2018-06-14T15:11:14.131Z,16128.00
2018-06-14T15:12:14.926Z,15114.24
2018-06-14T15:13:15.701Z,11566.08
2018-06-14T15:14:16.513Z,11520.00
2018-06-14T15:15:16.246Z,10828.80
2018-06-14T15:16:18.017Z,14376.96
2018-06-14T15:17:18.814Z,8432.64
2018-06-14T15:18:19.587Z,9815.04
2018-06-14T15:19:20.360Z,9354.24
2018-06-14T15:20:21.133Z,9077.76
2018-06-14T15:21:21.918Z,8709.12
2018-06-14T15:22:21.698Z,8294.40
2018-06-14T15:23:23.470Z,7971.84
2018-06-14T15:24:24.239Z,7695.36
2018-06-14T15:25:25.011Z,7464.96
2018-06-14T15:26:24.786Z,7280.64
2018-06-14T15:27:26.576Z,7050.24
2018-06-14T15:28:27.374Z,6865.92
2018-06-14T15:29:28.124Z,6773.76
2018-06-14T15:30:28.898Z,6958.08
2018-06-14T15:31:29.668Z,6589.44
2018-06-14T15:32:30.465Z,6312.96
2018-06-14T15:33:31.235Z,6128.64
2018-06-14T15:34:32.009Z,5736.96
2018-06-14T15:35:32.779Z,5575.68
2018-06-14T15:36:33.552Z,5529.60
2018-06-14T15:37:34.349Z,5575.68
2018-06-14T15:38:35.119Z,5713.92
2018-06-14T15:39:35.895Z,5875.20
2018-06-14T15:40:36.671Z,6082.56
2018-06-14T15:41:37.441Z,6266.88
2018-06-14T15:42:38.246Z,6543.36
2018-06-14T15:43:39.008Z,6681.60
2018-06-14T15:44:39.785Z,6865.92
2018-06-14T15:45:40.556Z,7050.24
2018-06-14T15:46:41.329Z,7280.64
2018-06-14T15:47:42.125Z,7464.96
2018-06-14T15:48:42.896Z,7603.20
2018-06-14T15:49:43.669Z,7649.28
2018-06-14T15:50:44.441Z,7603.20
2018-06-14T15:51:45.219Z,7557.12
2018-06-14T15:52:46.017Z,7464.96
2018-06-14T15:53:46.785Z,7372.80
2018-06-14T15:54:47.559Z,7280.64
2018-06-14T15:55:48.331Z,7234.56
2018-06-14T15:56:49.105Z,7142.40
2018-06-14T15:57:49.917Z,7096.32
2018-06-14T15:58:50.696Z,7050.24
2018-06-14T15:59:51.465Z,7050.24
2018-06-14T16:00:52.256Z,7050.24
2018-06-14T16:01:52.011Z,7050.24
2018-06-14T16:02:53.809Z,7096.32
2018-06-14T16:03:54.584Z,7096.32
2018-06-14T16:04:55.362Z,7096.32
2018-06-14T16:05:55.125Z,7096.32
2018-06-14T16:06:56.898Z,7142.40
2018-06-14T16:07:57.692Z,7096.32
2018-06-14T16:08:58.465Z,7050.24
2018-06-14T16:09:59.240Z,7004.16
2018-06-14T16:11:00.016Z,6958.08
2018-06-14T16:12:00.785Z,6912.00
2018-06-14T16:13:01.584Z,6912.00
2018-06-14T16:14:02.357Z,6912.00
2018-06-14T16:15:03.131Z,6958.08
2018-06-14T16:16:03.902Z,7050.24
2018-06-14T16:17:04.676Z,7188.48
2018-06-14T16:18:05.476Z,7280.64
2018-06-14T16:19:06.252Z,7372.80
2018-06-14T16:20:06.021Z,7418.88
2018-06-14T16:21:07.812Z,7464.96
2018-06-14T16:22:08.569Z,7464.96
2018-06-14T16:23:09.358Z,7372.80
2018-06-14T16:24:10.137Z,7234.56
2018-06-14T16:25:10.905Z,7050.24
2018-06-14T16:26:11.676Z,6819.84
2018-06-14T16:27:12.450Z,6543.36
2018-06-14T16:28:13.247Z,6220.80
2018-06-14T16:29:14.019Z,5898.24
2018-06-14T16:30:14.788Z,5644.80
2018-06-14T16:31:15.565Z,5368.32
2018-06-14T16:32:16.338Z,5114.88
2018-06-14T16:33:17.143Z,4930.56
2018-06-14T16:34:17.910Z,4746.24
2018-06-14T16:35:18.682Z,4608.00
2018-06-14T16:36:19.458Z,4492.80
2018-06-14T16:37:20.305Z,4423.68
2018-06-14T16:38:20.021Z,4354.56
2018-06-14T16:39:21.796Z,4308.48
2018-06-14T16:40:22.579Z,4285.44
2018-06-14T16:41:22.343Z,4262.40
2018-06-14T16:42:24.115Z,4239.36
2018-06-14T16:43:24.915Z,4239.36
2018-06-14T16:44:24.706Z,4239.36
2018-06-14T16:45:26.462Z,4216.32
2018-06-14T16:46:27.234Z,4216.32
2018-06-14T16:47:28.006Z,4193.28
2018-06-14T16:48:28.806Z,4193.28
2018-06-14T16:49:29.582Z,4193.28
2018-06-14T16:50:30.352Z,4170.24
2018-06-14T16:51:31.123Z,4147.20
2018-06-14T16:52:31.907Z,4101.12
2018-06-14T16:53:31.691Z,4055.04
2018-06-14T16:54:33.463Z,3985.92
2018-06-14T16:55:34.239Z,3916.80
2018-06-14T16:56:35.008Z,3824.64
2018-06-14T16:57:35.783Z,3755.52
2018-06-14T16:58:36.580Z,3686.40
2018-06-14T16:59:37.352Z,3617.28
2018-06-14T17:00:38.126Z,3571.20
2018-06-14T17:01:38.896Z,3525.12
2018-06-14T17:02:39.674Z,3456.00
2018-06-14T17:03:40.472Z,3409.92
2018-06-14T17:04:41.599Z,3363.84
2018-06-14T17:05:41.784Z,3294.72
2018-06-14T17:06:40.966Z,3202.56
2018-06-14T17:08:49.331Z,2995.20
2018-06-14T17:09:50.103Z,2891.52
2018-06-14T17:10:50.874Z,2776.32
2018-06-14T17:11:51.644Z,2661.12
2018-06-14T17:12:52.416Z,2545.92
2018-06-14T17:13:53.216Z,2442.24
2018-06-14T17:14:53.984Z,2350.08
2018-06-14T17:15:54.805Z,2257.92
2018-06-14T17:16:54.529Z,2177.28
2018-06-14T17:17:56.300Z,2096.64
2018-06-14T17:18:57.097Z,2062.08
2018-06-14T17:19:57.863Z,2027.52
2018-06-14T17:20:58.643Z,1992.96
2018-06-14T17:21:59.412Z,1969.92
2018-06-14T17:23:00.183Z,1935.36
2018-06-14T17:24:00.988Z,1923.84
2018-06-14T17:25:01.754Z,1900.80
2018-06-14T17:26:02.528Z,1877.76
2018-06-14T17:27:03.295Z,1854.72
2018-06-14T17:28:04.074Z,1831.68
2018-06-14T17:29:04.869Z,1808.64
2018-06-14T17:30:05.638Z,1751.04
2018-06-14T17:31:06.406Z,1658.88
2018-06-14T17:32:07.178Z,1566.72
2018-06-14T17:33:07.951Z,1468.80
2018-06-14T17:34:08.748Z,1359.36
2018-06-14T17:35:09.521Z,1249.92
2018-06-14T17:36:10.313Z,1123.20
2018-06-14T17:37:11.063Z,1008.00
2018-06-14T17:38:11.835Z,910.08
2018-06-14T17:39:12.630Z,846.72
2018-06-14T17:40:13.402Z,777.60
2018-06-14T17:41:14.344Z,766.08
2018-06-14T17:42:13.945Z,766.08
2018-06-14T17:43:15.775Z,766.08
2018-06-14T17:44:15.518Z,777.60
2018-06-14T17:45:17.285Z,783.36
2018-06-14T17:46:17.118Z,794.88
2018-06-14T17:47:17.836Z,800.64
2018-06-14T17:48:19.608Z,806.40
2018-06-14T17:49:20.403Z,812.16
2018-06-14T17:50:21.176Z,817.92
2018-06-14T17:51:21.954Z,817.92
2018-06-14T17:52:22.722Z,817.92
2018-06-14T17:53:23.537Z,823.68
2018-06-14T17:54:23.286Z,823.68
2018-06-14T17:55:25.060Z,159.12
2018-06-14T17:56:25.846Z,13.50
2018-06-14T17:57:26.604Z,8.95
2018-06-14T17:58:27.372Z,9.45
2018-06-14T17:59:28.171Z,8.60
2018-06-14T18:00:28.945Z,8.23
2018-06-14T18:01:29.723Z,8.01
2018-06-14T18:02:30.486Z,8.19
2018-06-14T18:03:31.263Z,8.15
2018-06-14T18:04:32.062Z,8.06
2018-06-14T18:05:32.830Z,7.78
2018-06-14T18:06:33.631Z,7.65
2018-06-14T18:07:35.080Z,7.24
2018-06-14T18:08:34.149Z,6.93
2018-06-14T18:09:35.944Z,7.07
2018-06-14T18:10:36.713Z,7.16
2018-06-14T18:11:37.484Z,7.11
2018-06-14T18:12:38.256Z,6.97
2018-06-14T18:13:39.029Z,6.89
2018-06-14T18:14:39.823Z,7.02
2018-06-14T18:15:40.594Z,6.89
2018-06-14T18:16:41.372Z,6.84
2018-06-14T18:17:42.146Z,6.57
2018-06-14T18:18:42.921Z,6.16
2018-06-14T18:19:43.709Z,5.85
2018-06-14T18:20:44.481Z,5.58
2018-06-14T18:21:48.104Z,5.31
2018-06-14T18:22:47.830Z,5.31
2018-06-14T18:23:46.604Z,4.32
2018-06-14T18:24:47.398Z,4.59
2018-06-14T18:25:48.170Z,4.99
2018-06-14T18:26:48.942Z,5.40
2018-06-14T18:27:49.714Z,5.49
2018-06-14T18:28:50.494Z,5.49
2018-06-14T18:29:51.339Z,5.45
2018-06-14T18:30:51.055Z,5.36
2018-06-14T18:31:52.825Z,5.31
2018-06-14T18:32:53.669Z,5.26
2018-06-14T18:33:53.369Z,5.18
2018-06-14T18:34:55.165Z,5.13
2018-06-14T18:35:55.936Z,4.99
2018-06-14T18:36:56.711Z,4.86
2018-06-14T18:37:57.495Z,4.72
2018-06-14T18:38:58.252Z,4.55
2018-06-14T18:39:59.046Z,4.36
2018-06-14T18:40:59.817Z,4.18
2018-06-14T18:42:00.589Z,3.91
2018-06-14T18:43:01.362Z,3.60
2018-06-14T18:44:02.132Z,3.29
2018-06-14T18:45:02.929Z,2.88
2018-06-14T18:46:03.698Z,2.65
2018-06-14T18:47:04.472Z,2.52
2018-06-14T18:48:05.246Z,2.57
2018-06-14T18:49:06.023Z,2.61
2018-06-14T18:50:06.815Z,2.52
2018-06-14T18:51:07.586Z,2.43
2018-06-14T18:52:08.359Z,2.38
2018-06-14T18:53:09.132Z,2.34
2018-06-14T18:54:09.901Z,2.38
2018-06-14T18:55:10.700Z,2.47
2018-06-14T18:56:11.470Z,2.52
2018-06-14T18:57:12.244Z,2.52
2018-06-14T18:58:13.024Z,2.47
2018-06-14T18:59:13.795Z,2.43
2018-06-14T19:00:14.594Z,2.43
2018-06-14T19:01:15.392Z,2.43
2018-06-14T19:02:16.137Z,2.38
2018-06-14T19:03:16.912Z,2.34
2018-06-14T19:04:18.039Z,2.30
2018-06-14T19:05:18.247Z,2.20
2018-06-14T19:06:17.422Z,2.16
2018-06-14T19:07:27.586Z,2.03
2018-06-14T19:08:28.357Z,1.93
2018-06-14T19:09:29.126Z,1.85
2018-06-14T19:10:29.920Z,1.85
2018-06-14T19:11:30.691Z,1.75
2018-06-14T19:12:31.461Z,1.71
2018-06-14T19:13:32.233Z,1.71
2018-06-14T19:14:33.003Z,1.66
2018-06-14T19:15:33.808Z,1.71
2018-06-14T19:16:34.572Z,1.71
2018-06-14T19:17:35.411Z,1.71
2018-06-14T19:18:35.113Z,1.75
2018-06-14T19:19:36.885Z,1.75
2018-06-14T19:20:37.683Z,1.80
2018-06-14T19:21:38.455Z,1.80
2018-06-14T19:22:39.251Z,1.75
2018-06-14T19:23:39.002Z,1.71
2018-06-14T19:24:40.770Z,1.62
2018-06-14T19:25:41.560Z,1.58
2018-06-14T19:26:42.334Z,1.49
2018-06-14T19:27:43.101Z,1.44
2018-06-14T19:28:43.873Z,1.35
2018-06-14T19:29:44.645Z,1.30
2018-06-14T19:30:45.438Z,1.22
2018-06-14T19:31:46.211Z,1.17
2018-06-14T19:32:46.982Z,1.08
2018-06-14T19:33:47.753Z,0.99
2018-06-14T19:34:48.527Z,0.86
2018-06-14T19:35:49.328Z,0.76
2018-06-14T19:36:50.095Z,0.72
2018-06-14T19:37:50.870Z,0.63
2018-06-14T19:38:51.637Z,0.63
2018-06-14T19:39:52.406Z,0.58
2018-06-14T19:40:53.201Z,0.58
2018-06-14T19:41:53.972Z,0.54
2018-06-14T19:42:54.746Z,0.50
2018-06-14T19:43:55.524Z,0.45
2018-06-14T19:44:56.287Z,0.41
2018-06-14T19:45:57.083Z,0.36
2018-06-14T19:46:57.850Z,0.31
2018-06-14T19:47:58.664Z,0.27
2018-06-14T19:48:58.394Z,0.27
2018-06-14T19:50:00.164Z,1.75
2018-06-14T19:51:00.963Z,2.03
2018-06-14T19:52:01.746Z,2.12
2018-06-14T19:53:02.516Z,2.16
2018-06-14T19:54:03.288Z,2.16
2018-06-14T19:55:04.061Z,2.20
2018-06-14T19:56:04.855Z,2.20
2018-06-14T19:57:05.623Z,2.20
2018-06-14T19:58:06.396Z,2.25
2018-06-14T19:59:07.165Z,2.25
2018-06-14T20:00:07.949Z,2.25
2018-06-14T20:01:08.744Z,2.20
2018-06-14T20:02:08.508Z,2.20
2018-06-14T20:03:10.278Z,2.20
2018-06-14T20:04:11.046Z,2.16
2018-06-14T20:05:11.818Z,2.20
2018-06-14T20:06:12.614Z,2.12
2018-06-14T20:07:13.383Z,2.03
2018-06-14T20:08:14.157Z,2.25
2018-06-14T20:09:14.940Z,2.30
2018-06-14T20:10:15.708Z,2.25
2018-06-14T20:11:16.503Z,1.30
2018-06-14T20:12:17.275Z,1.35
2018-06-14T20:13:18.046Z,1.30
2018-06-14T20:14:18.851Z,8.64
2018-06-14T20:15:19.591Z,0.00
2018-06-14T20:16:20.386Z,0.00
2018-06-14T20:17:21.160Z,0.00
2018-06-14T20:18:21.930Z,0.00
2018-06-14T20:19:22.703Z,0.00
2018-06-14T20:20:23.473Z,0.00
2018-06-14T20:21:24.273Z,0.00
2018-06-14T20:22:25.049Z,0.00
2018-06-14T20:23:25.819Z,0.00
2018-06-14T20:24:26.594Z,0.00
2018-06-14T20:25:27.367Z,0.00
2018-06-14T20:26:28.159Z,0.00
2018-06-14T20:27:28.933Z,0.00
2018-06-14T20:28:29.703Z,0.00
2018-06-14T20:29:30.474Z,0.00
2018-06-14T20:30:31.252Z,0.00
2018-06-14T20:31:32.043Z,0.00
2018-06-14T20:32:32.817Z,0.00
2018-06-14T20:33:33.590Z,0.00
2018-06-14T20:34:34.362Z,0.00
2018-06-14T20:35:35.136Z,0.00
2018-06-14T20:36:35.928Z,0.00
2018-06-14T20:37:36.699Z,11.20
2018-06-14T20:38:37.473Z,15.48
2018-06-14T20:39:38.247Z,15.39
2018-06-14T20:40:39.018Z,15.21
2018-06-14T20:41:39.825Z,15.12
2018-06-14T20:42:40.596Z,14.94
2018-06-14T20:43:41.404Z,14.85
2018-06-14T20:44:42.139Z,14.76
2018-06-14T20:45:42.912Z,14.67
2018-06-14T20:46:43.710Z,15.12
2018-06-14T20:47:44.485Z,15.21
2018-06-14T20:48:45.296Z,15.03
2018-06-14T20:49:45.037Z,14.94
2018-06-14T20:50:46.803Z,15.03
2018-06-14T20:51:47.665Z,15.03
2018-06-14T20:52:47.374Z,15.03
2018-06-14T20:53:49.141Z,14.94
2018-06-14T20:54:49.915Z,15.03
2018-06-14T20:55:50.687Z,15.03
2018-06-14T20:56:51.484Z,14.94
2018-06-14T20:57:52.256Z,14.94
2018-06-14T20:58:53.027Z,15.12
2018-06-14T20:59:54.158Z,15.21
2018-06-14T21:03:04.502Z,15.12
2018-06-14T21:04:05.271Z,15.03
2018-06-14T21:05:06.111Z,15.03
2018-06-14T21:06:05.811Z,15.03
2018-06-14T21:07:07.607Z,15.03
2018-06-14T21:08:08.378Z,15.03
2018-06-14T21:09:09.150Z,15.03
2018-06-14T21:10:09.921Z,15.03
2018-06-14T21:11:10.695Z,15.03
2018-06-14T21:12:11.486Z,15.03
2018-06-14T21:13:12.256Z,15.12
2018-06-14T21:14:13.030Z,15.12
2018-06-14T21:15:13.804Z,15.12
2018-06-14T21:16:14.573Z,15.03
2018-06-14T21:17:15.368Z,15.03
2018-06-14T21:18:16.140Z,15.21
2018-06-14T21:19:16.910Z,15.12
2018-06-14T21:20:17.682Z,15.21
2018-06-14T21:21:18.454Z,14.94
2018-06-14T21:22:19.253Z,15.03
2018-06-14T21:23:20.022Z,15.12
2018-06-14T21:24:20.793Z,15.03
2018-06-14T21:25:21.568Z,15.12
2018-06-14T21:26:22.340Z,15.03
2018-06-14T21:27:23.135Z,15.21
2018-06-14T21:28:23.906Z,15.12
2018-06-14T21:29:24.677Z,15.03
2018-06-14T21:30:25.449Z,15.12
2018-06-14T21:31:26.225Z,15.03
2018-06-14T21:32:27.024Z,14.94
